createdAt,value
2023-05-25T00:01:30.290Z,7.75
2023-05-25T00:04:34.486Z,7.43
2023-05-25T00:07:37.138Z,7.65
2023-05-25T00:10:39.040Z,7.55
2023-05-25T00:13:41.616Z,8.32
2023-05-25T00:16:45.653Z,7.82
2023-05-25T00:19:48.100Z,8.75
2023-05-25T00:22:49.991Z,8.00
2023-05-25T00:25:52.285Z,8.25
2023-05-25T00:28:54.288Z,8.57
2023-05-25T00:31:56.593Z,8.15
2023-05-25T00:34:58.620Z,8.00
2023-05-25T00:38:01.005Z,8.70
2023-05-25T00:41:03.012Z,8.40
2023-05-25T00:44:05.464Z,8.18
2023-05-25T00:47:07.475Z,8.98
2023-05-25T00:50:11.081Z,8.05
2023-05-25T00:53:14.654Z,9.35
2023-05-25T00:56:24.258Z,8.82
2023-05-25T00:59:36.056Z,9.75
2023-05-25T01:02:41.144Z,8.82
2023-05-25T01:05:47.415Z,8.55
2023-05-25T01:09:00.346Z,8.93
2023-05-25T01:12:03.840Z,9.18
2023-05-25T01:15:06.703Z,8.25
2023-05-25T01:18:09.542Z,9.15
2023-05-25T01:21:18.131Z,9.30
2023-05-25T01:24:32.358Z,8.77
2023-05-25T01:27:43.680Z,8.75
2023-05-25T01:30:48.514Z,8.77
2023-05-25T01:33:52.636Z,9.02
2023-05-25T01:36:55.027Z,9.27
2023-05-25T01:39:57.647Z,9.18
2023-05-25T01:42:59.656Z,9.00
2023-05-25T01:46:38.309Z,9.15
2023-05-25T01:49:45.858Z,9.38
2023-05-25T01:53:02.566Z,8.85
2023-05-25T01:56:11.390Z,9.05
2023-05-25T01:59:16.460Z,8.95
2023-05-25T02:02:19.900Z,9.20
2023-05-25T02:05:22.286Z,9.07
2023-05-25T02:08:24.342Z,9.02
2023-05-25T02:11:27.746Z,8.55
2023-05-25T02:14:29.789Z,8.85
2023-05-25T02:17:32.287Z,8.70
2023-05-25T02:20:36.312Z,8.95
2023-05-25T02:23:39.000Z,8.20
2023-05-25T02:26:40.964Z,8.20
2023-05-25T02:29:43.249Z,8.48
2023-05-25T02:32:45.295Z,8.45
2023-05-25T02:35:47.744Z,8.75
2023-05-25T02:38:52.049Z,8.77
2023-05-25T02:41:54.857Z,8.40
2023-05-25T02:44:56.905Z,9.10
2023-05-25T02:47:59.536Z,8.27
2023-05-25T02:51:02.944Z,9.30
2023-05-25T02:54:05.436Z,8.90
2023-05-25T02:57:08.400Z,8.75
2023-05-25T03:00:14.644Z,8.70
2023-05-25T03:03:16.649Z,9.00
2023-05-25T03:06:19.673Z,8.63
2023-05-25T03:09:21.629Z,8.57
2023-05-25T03:12:23.876Z,8.25
2023-05-25T03:15:25.887Z,8.23
2023-05-25T03:18:28.174Z,7.97
2023-05-25T03:21:30.161Z,8.02
2023-05-25T03:24:32.600Z,8.10
2023-05-25T03:27:34.664Z,7.82
2023-05-25T03:30:36.948Z,7.95
2023-05-25T03:33:39.264Z,8.27
2023-05-25T03:36:46.025Z,8.98
2023-05-25T03:39:48.076Z,9.02
2023-05-25T03:42:50.393Z,8.02
2023-05-25T03:45:52.393Z,8.82
2023-05-25T03:48:54.673Z,8.32
2023-05-25T03:51:56.885Z,8.40
2023-05-25T03:55:01.689Z,8.45
2023-05-25T03:58:03.661Z,8.90
2023-05-25T04:01:05.943Z,8.40
2023-05-25T04:04:08.121Z,8.07
2023-05-25T04:07:10.933Z,8.52
2023-05-25T04:10:12.991Z,8.45
2023-05-25T04:13:15.648Z,9.48
2023-05-25T04:16:17.637Z,9.27
2023-05-25T04:19:20.349Z,8.40
2023-05-25T04:22:22.380Z,8.80
2023-05-25T04:25:25.756Z,8.30
2023-05-25T04:28:28.659Z,8.77
2023-05-25T04:31:31.158Z,8.98
2023-05-25T04:34:33.879Z,8.25
2023-05-25T04:37:37.070Z,8.35
2023-05-25T04:40:41.783Z,8.45
2023-05-25T04:44:04.023Z,8.07
2023-05-25T04:47:08.715Z,7.80
2023-05-25T04:50:12.285Z,8.13
2023-05-25T04:53:14.280Z,8.20
2023-05-25T04:56:16.743Z,6.95
2023-05-25T04:59:18.837Z,7.53
2023-05-25T05:02:21.199Z,6.63
2023-05-25T05:05:23.402Z,6.53
2023-05-25T05:08:25.812Z,6.60
2023-05-25T05:11:31.463Z,6.70
2023-05-25T05:14:33.679Z,6.32
2023-05-25T05:17:36.267Z,5.93
2023-05-25T05:20:39.036Z,6.60
2023-05-25T05:23:45.181Z,6.00
2023-05-25T05:26:57.365Z,6.35
2023-05-25T05:30:00.852Z,5.97
2023-05-25T05:33:03.318Z,5.63
2023-05-25T05:36:05.723Z,5.88
2023-05-25T05:39:08.017Z,6.05
2023-05-25T05:42:10.033Z,5.30
2023-05-25T05:45:12.354Z,6.10
2023-05-25T05:48:14.429Z,5.43
2023-05-25T05:51:16.742Z,5.07
2023-05-25T05:54:18.808Z,5.38
2023-05-25T05:57:21.190Z,5.57
2023-05-25T06:00:23.390Z,5.22
2023-05-25T06:03:27.751Z,5.50
2023-05-25T06:06:29.810Z,5.05
2023-05-25T06:09:33.053Z,4.57
2023-05-25T06:12:35.052Z,4.95
2023-05-25T06:15:37.490Z,5.18
2023-05-25T06:18:39.663Z,5.13
2023-05-25T06:21:42.180Z,4.68
2023-05-25T06:24:44.149Z,4.68
2023-05-25T06:27:46.518Z,5.30
2023-05-25T06:30:48.515Z,6.40
2023-05-25T06:33:51.327Z,4.35
2023-05-25T06:36:53.492Z,4.88
2023-05-25T06:39:57.586Z,4.50
2023-05-25T06:42:59.716Z,4.28
2023-05-25T06:46:02.026Z,4.18
2023-05-25T06:49:04.491Z,5.40
2023-05-25T06:52:07.319Z,4.43
2023-05-25T06:55:09.590Z,4.50
2023-05-25T06:58:11.811Z,4.15
2023-05-25T07:01:13.875Z,4.70
2023-05-25T07:04:16.313Z,5.05
2023-05-25T07:07:18.364Z,4.20
2023-05-25T07:10:20.984Z,4.32
2023-05-25T07:13:23.092Z,4.10
2023-05-25T07:16:26.233Z,3.83
2023-05-25T07:19:28.229Z,3.63
2023-05-25T07:22:30.721Z,4.50
2023-05-25T07:25:32.696Z,3.90
2023-05-25T07:28:35.386Z,4.10
2023-05-25T07:31:37.454Z,4.22
2023-05-25T07:34:40.101Z,3.90
2023-05-25T07:37:42.113Z,4.65
2023-05-25T07:40:47.082Z,4.28
2023-05-25T07:43:49.102Z,3.88
2023-05-25T07:46:51.498Z,3.28
2023-05-25T07:49:54.153Z,4.00
2023-05-25T07:52:58.561Z,3.95
2023-05-25T07:56:00.608Z,3.70
2023-05-25T07:59:03.107Z,4.00
2023-05-25T08:02:05.195Z,3.85
2023-05-25T08:05:08.041Z,4.30
2023-05-25T08:08:10.711Z,7.25
2023-05-25T08:11:13.351Z,3.75
2023-05-25T08:14:16.280Z,3.88
2023-05-25T08:17:18.731Z,3.65
2023-05-25T08:20:20.877Z,3.95
2023-05-25T08:23:23.422Z,3.55
2023-05-25T08:26:38.384Z,3.70
2023-05-25T08:29:47.733Z,3.88
2023-05-25T08:32:49.814Z,3.53
2023-05-25T08:35:52.899Z,3.60
2023-05-25T08:38:54.920Z,3.72
2023-05-25T08:41:57.247Z,3.80
2023-05-25T08:44:59.570Z,3.60
2023-05-25T08:48:08.205Z,3.60
2023-05-25T08:51:13.363Z,3.83
2023-05-25T08:54:24.492Z,3.53
2023-05-25T08:57:48.092Z,2.80
2023-05-25T09:00:56.802Z,2.75
2023-05-25T09:04:01.634Z,2.85
2023-05-25T09:07:10.167Z,2.95
2023-05-25T09:10:14.439Z,3.60
2023-05-25T09:13:22.115Z,3.33
2023-05-25T09:16:26.454Z,3.53
2023-05-25T09:19:28.817Z,3.85
2023-05-25T09:22:31.385Z,4.15
2023-05-25T09:25:34.740Z,3.75
2023-05-25T09:28:46.710Z,3.30
2023-05-25T09:31:49.127Z,4.13
2023-05-25T09:34:51.378Z,4.15
2023-05-25T09:37:55.480Z,3.90
2023-05-25T09:40:57.917Z,4.47
2023-05-25T09:44:10.531Z,4.53
2023-05-25T09:47:15.359Z,4.38
2023-05-25T09:50:18.025Z,4.70
2023-05-25T09:53:20.394Z,6.57
2023-05-25T09:56:23.877Z,4.88
2023-05-25T09:59:25.916Z,4.60
2023-05-25T10:02:28.512Z,4.40
2023-05-25T10:05:30.558Z,4.90
2023-05-25T10:08:33.574Z,5.13
2023-05-25T10:11:40.275Z,4.90
2023-05-25T10:14:43.828Z,4.72
2023-05-25T10:17:57.726Z,4.60
2023-05-25T10:21:04.744Z,4.70
2023-05-25T10:24:33.092Z,4.72
2023-05-25T10:27:40.673Z,4.43
2023-05-25T10:30:43.273Z,4.65
2023-05-25T10:33:50.590Z,4.80
2023-05-25T10:36:56.005Z,4.53
2023-05-25T10:40:00.075Z,7.07
2023-05-25T10:43:02.944Z,5.60
2023-05-25T10:46:08.400Z,4.00
2023-05-25T10:49:10.690Z,4.50
2023-05-25T10:52:20.702Z,4.60
2023-05-25T10:55:22.819Z,4.18
2023-05-25T10:58:27.664Z,4.82
2023-05-25T11:01:33.725Z,4.63
2023-05-25T11:04:37.671Z,4.70
2023-05-25T11:08:10.147Z,4.90
2023-05-25T11:11:12.442Z,5.57
2023-05-25T11:14:32.471Z,4.70
2023-05-25T11:17:46.023Z,12.30
2023-05-25T11:20:48.689Z,4.78
2023-05-25T11:24:02.955Z,4.80
2023-05-25T11:27:06.162Z,4.45
2023-05-25T11:30:09.571Z,4.53
2023-05-25T11:33:11.819Z,5.32
2023-05-25T11:36:15.514Z,5.18
2023-05-25T11:39:23.145Z,4.70
2023-05-25T11:42:26.291Z,5.13
2023-05-25T11:45:34.116Z,5.05
2023-05-25T11:48:36.499Z,4.80
2023-05-25T11:51:38.720Z,4.57
2023-05-25T11:54:42.070Z,4.53
2023-05-25T11:57:44.369Z,5.53
2023-05-25T12:00:46.675Z,5.57
2023-05-25T12:03:57.188Z,4.78
2023-05-25T12:07:07.762Z,5.28
2023-05-25T12:10:11.753Z,5.28
2023-05-25T12:13:14.814Z,4.97
2023-05-25T12:16:16.942Z,4.93
2023-05-25T12:19:19.434Z,5.43
2023-05-25T12:22:21.727Z,4.72
2023-05-25T12:25:24.554Z,4.35
2023-05-25T12:28:26.624Z,4.47
2023-05-25T12:31:34.228Z,4.18
2023-05-25T12:34:36.798Z,4.60
2023-05-25T12:37:39.051Z,4.63
2023-05-25T12:40:42.176Z,4.13
2023-05-25T12:43:44.670Z,4.03
2023-05-25T12:46:47.170Z,4.25
2023-05-25T12:50:13.808Z,4.20
2023-05-25T12:53:15.933Z,4.82
2023-05-25T12:56:18.211Z,5.15
2023-05-25T12:59:20.415Z,4.70
2023-05-25T13:02:22.731Z,4.32
2023-05-25T13:05:26.189Z,4.60
2023-05-25T13:08:29.270Z,4.43
2023-05-25T13:11:31.225Z,3.50
2023-05-25T13:14:33.509Z,4.20
2023-05-25T13:17:35.767Z,4.43
2023-05-25T13:20:38.472Z,3.92
2023-05-25T13:23:40.628Z,4.50
2023-05-25T13:26:46.053Z,4.28
2023-05-25T13:29:48.866Z,4.53
2023-05-25T13:32:52.751Z,3.97
2023-05-25T13:35:58.872Z,4.40
2023-05-25T13:39:02.154Z,4.30
2023-05-25T13:42:04.337Z,4.28
2023-05-25T13:45:07.213Z,4.25
2023-05-25T13:48:09.533Z,4.07
2023-05-25T13:51:11.912Z,3.83
2023-05-25T13:54:13.973Z,3.85
2023-05-25T13:57:16.395Z,3.40
2023-05-25T14:00:18.921Z,3.25
2023-05-25T14:03:21.980Z,7.57
2023-05-25T14:06:25.050Z,3.70
2023-05-25T14:09:27.551Z,3.67
2023-05-25T14:12:29.583Z,3.95
2023-05-25T14:15:31.845Z,4.05
2023-05-25T14:18:33.763Z,3.78
2023-05-25T14:21:37.340Z,4.20
2023-05-25T14:24:39.396Z,6.60
2023-05-25T14:27:41.663Z,5.43
2023-05-25T14:30:43.685Z,3.90
2023-05-25T14:33:46.166Z,3.08
2023-05-25T14:36:48.112Z,4.05
2023-05-25T14:39:50.340Z,4.00
2023-05-25T14:42:55.317Z,4.03
2023-05-25T14:45:57.728Z,4.85
2023-05-25T14:48:59.746Z,4.38
2023-05-25T14:52:02.105Z,3.97
2023-05-25T14:55:04.282Z,16.05
2023-05-25T14:58:06.551Z,4.75
2023-05-25T15:01:08.563Z,4.53
2023-05-25T15:04:10.991Z,4.05
2023-05-25T15:07:14.583Z,3.90
2023-05-25T15:10:16.973Z,3.70
2023-05-25T15:13:22.434Z,4.80
2023-05-25T15:16:24.963Z,3.85
2023-05-25T15:19:26.998Z,3.95
2023-05-25T15:22:29.259Z,3.85
2023-05-25T15:25:35.649Z,4.00
2023-05-25T15:28:38.273Z,3.80
2023-05-25T15:31:40.501Z,3.40
2023-05-25T15:34:42.999Z,3.15
2023-05-25T15:37:45.099Z,3.83
2023-05-25T15:40:47.375Z,3.70
2023-05-25T15:43:58.080Z,3.42
2023-05-25T15:47:00.766Z,3.38
2023-05-25T15:50:02.738Z,3.42
2023-05-25T15:53:05.428Z,3.13
2023-05-25T15:56:07.435Z,3.20
2023-05-25T15:59:09.745Z,3.10
2023-05-25T16:02:11.701Z,3.38
2023-05-25T16:05:14.112Z,2.90
2023-05-25T16:08:16.071Z,3.10
2023-05-25T16:11:18.700Z,3.10
2023-05-25T16:14:20.788Z,2.92
2023-05-25T16:17:23.029Z,3.42
2023-05-25T16:20:25.109Z,3.42
2023-05-25T16:23:27.631Z,6.20
2023-05-25T16:26:29.704Z,10.60
2023-05-25T16:29:32.279Z,3.17
2023-05-25T16:32:34.302Z,3.30
2023-05-25T16:35:36.735Z,2.92
2023-05-25T16:38:38.709Z,3.38
2023-05-25T16:41:41.299Z,3.00
2023-05-25T16:44:43.284Z,2.67
2023-05-25T16:47:45.644Z,2.95
2023-05-25T16:50:47.801Z,2.88
2023-05-25T16:53:51.848Z,2.97
2023-05-25T16:56:55.012Z,2.67
2023-05-25T16:59:57.493Z,4.43
2023-05-25T17:02:59.548Z,4.70
2023-05-25T17:06:02.010Z,6.15
2023-05-25T17:09:04.144Z,3.97
2023-05-25T17:12:07.036Z,3.00
2023-05-25T17:15:11.121Z,3.08
2023-05-25T17:18:13.534Z,3.38
2023-05-25T17:21:15.564Z,2.70
2023-05-25T17:24:18.162Z,2.97
2023-05-25T17:27:20.202Z,3.25
2023-05-25T17:30:22.543Z,2.83
2023-05-25T17:33:26.060Z,10.85
2023-05-25T17:36:28.323Z,4.30
2023-05-25T17:39:30.355Z,3.25
2023-05-25T17:42:32.739Z,3.15
2023-05-25T17:45:34.705Z,3.22
2023-05-25T17:48:37.510Z,3.05
2023-05-25T17:51:39.657Z,3.25
2023-05-25T17:54:41.944Z,2.83
2023-05-25T17:57:43.928Z,3.13
2023-05-25T18:00:46.804Z,3.05
2023-05-25T18:03:53.417Z,2.97
2023-05-25T18:06:56.760Z,3.45
2023-05-25T18:09:58.851Z,2.65
2023-05-25T18:13:01.186Z,3.25
2023-05-25T18:16:03.256Z,3.10
2023-05-25T18:19:06.795Z,3.28
2023-05-25T18:22:08.856Z,3.00
2023-05-25T18:25:11.219Z,3.30
2023-05-25T18:28:15.144Z,3.30
2023-05-25T18:31:18.041Z,2.92
2023-05-25T18:34:20.202Z,3.10
2023-05-25T18:37:23.265Z,3.40
2023-05-25T18:40:25.243Z,2.95
2023-05-25T18:43:27.595Z,3.22
2023-05-25T18:46:29.834Z,3.30
2023-05-25T18:49:34.523Z,3.20
2023-05-25T18:52:36.515Z,3.40
2023-05-25T18:55:38.787Z,3.20
2023-05-25T18:58:41.093Z,3.50
2023-05-25T19:01:43.433Z,3.47
2023-05-25T19:04:45.722Z,3.65
2023-05-25T19:07:58.333Z,3.65
2023-05-25T19:11:01.352Z,10.30
2023-05-25T19:14:04.574Z,5.18
2023-05-25T19:17:06.611Z,4.15
2023-05-25T19:20:09.619Z,3.60
2023-05-25T19:23:12.160Z,3.63
2023-05-25T19:26:14.788Z,4.20
2023-05-25T19:29:16.939Z,4.05
2023-05-25T19:32:19.189Z,3.83
2023-05-25T19:35:21.456Z,4.07
2023-05-25T19:38:26.605Z,4.18
2023-05-25T19:41:30.910Z,10.65
2023-05-25T19:44:33.331Z,4.35
2023-05-25T19:47:36.006Z,4.05
2023-05-25T19:50:38.297Z,5.00
2023-05-25T19:53:40.717Z,4.35
2023-05-25T19:56:44.301Z,5.28
2023-05-25T19:59:46.747Z,5.03
2023-05-25T20:02:51.204Z,5.32
2023-05-25T20:05:53.395Z,5.43
2023-05-25T20:08:55.784Z,4.20
2023-05-25T20:11:58.608Z,4.78
2023-05-25T20:15:00.949Z,5.03
2023-05-25T20:18:02.976Z,4.95
2023-05-25T20:21:05.735Z,5.43
2023-05-25T20:24:07.680Z,4.78
2023-05-25T20:27:10.080Z,5.03
2023-05-25T20:30:13.792Z,4.75
2023-05-25T20:33:17.328Z,5.10
2023-05-25T20:36:19.368Z,5.57
2023-05-25T20:39:21.678Z,5.10
2023-05-25T20:42:23.712Z,5.63
2023-05-25T20:45:28.822Z,5.45
2023-05-25T20:48:31.528Z,5.40
2023-05-25T20:51:34.351Z,5.40
2023-05-25T20:54:41.862Z,5.80
2023-05-25T20:57:45.483Z,5.85
2023-05-25T21:00:49.739Z,6.07
2023-05-25T21:03:52.692Z,5.95
2023-05-25T21:06:55.719Z,5.97
2023-05-25T21:09:59.942Z,5.70
2023-05-25T21:13:05.611Z,5.90
2023-05-25T21:16:12.377Z,5.25
2023-05-25T21:19:15.087Z,6.13
2023-05-25T21:22:18.394Z,6.07
2023-05-25T21:25:21.037Z,6.28
2023-05-25T21:28:23.866Z,5.57
2023-05-25T21:31:26.181Z,5.38
2023-05-25T21:34:28.571Z,5.45
2023-05-25T21:37:30.719Z,4.55
2023-05-25T21:40:32.970Z,4.90
2023-05-25T21:43:34.990Z,4.75
2023-05-25T21:46:39.055Z,4.50
2023-05-25T21:49:41.661Z,4.32
2023-05-25T21:52:44.555Z,4.60
2023-05-25T21:55:47.721Z,4.70
2023-05-25T21:58:53.725Z,4.82
2023-05-25T22:01:55.859Z,4.68
2023-05-25T22:04:58.491Z,4.90
2023-05-25T22:08:03.888Z,4.55
2023-05-25T22:11:06.194Z,5.45
2023-05-25T22:14:08.163Z,5.07
2023-05-25T22:17:10.535Z,5.35
2023-05-25T22:20:12.613Z,4.80
2023-05-25T22:23:15.333Z,4.47
2023-05-25T22:26:17.377Z,4.70
2023-05-25T22:29:19.722Z,4.45
2023-05-25T22:32:21.880Z,4.40
2023-05-25T22:35:24.372Z,4.80
2023-05-25T22:38:26.305Z,4.60
2023-05-25T22:41:28.514Z,5.25
2023-05-25T22:44:30.500Z,4.38
2023-05-25T22:47:32.771Z,4.45
2023-05-25T22:50:34.985Z,5.05
2023-05-25T22:53:37.232Z,4.68
2023-05-25T22:56:39.220Z,5.13
2023-05-25T22:59:41.455Z,4.97
2023-05-25T23:02:43.511Z,5.30
2023-05-25T23:05:46.092Z,5.28
2023-05-25T23:08:48.402Z,4.55
2023-05-25T23:11:50.822Z,4.45
2023-05-25T23:14:53.495Z,4.63
2023-05-25T23:17:55.991Z,4.68
2023-05-25T23:20:58.010Z,4.80
2023-05-25T23:24:00.540Z,4.65
2023-05-25T23:27:02.966Z,4.07
2023-05-25T23:30:06.877Z,4.80
2023-05-25T23:33:10.258Z,4.70
2023-05-25T23:36:14.055Z,4.20
2023-05-25T23:39:16.054Z,4.47
2023-05-25T23:42:18.682Z,4.18
2023-05-25T23:45:20.848Z,4.18
2023-05-25T23:48:23.454Z,4.95
2023-05-25T23:51:25.594Z,4.60
2023-05-25T23:54:27.980Z,4.60
2023-05-25T23:57:29.961Z,4.97
